• Join FlightAware (Why Join?)
  • Login
  • US Flag GB Flag 
17:23 EST


 

Airport Tracker/Info


-or-


 

Live Flight TrackerFlight Track Log ✈ EGF4039 ✈ 18-Apr-2013 ✈ KALO - KORD

Flight Track Log - Related Links

Times and Time Zones

All times are in EDT time to prevent confusion due to time zone crossing. See the EGF4039 flight status page for this flight to view local times or setup timezone preferences in your user account.

Time Position Orientation Groundspeed Altitude Reporting Facility
EDT Latitude Longitude Course Direction KTS MPH feet Rate Location/Type
18:14 42.5889 -92.4047 90° East 188 216 3,000  Level Chicago Center
18:15 42.5950 -92.3200 84° East 246 283 5,100 2,280 Climbing Chicago Center
18:16 42.5806 -92.2136 100° East 268 308 7,800 2,520 Climbing Chicago Center
18:17 42.5697 -92.1069 98° East 281 323 10,400 2,460 Climbing Chicago Center
18:18 42.4916 -91.7739 97° East  Level FlightAware Approximate
18:18 42.5556 -91.9764 98° East 289 333 12,900  Level Chicago Center
18:19 42.4833 -91.6482 90° East  Level FlightAware Approximate
18:19 42.5408 -91.8547 99° East 322 371 14,300  Level Chicago Center
18:20 42.5253 -91.7231 99° East 357 411 15,800 1,620 Climbing Chicago Center
18:21 42.5094 -91.5889 99° East 367 422 17,700 2,220 Climbing Chicago Center
18:23 42.4897 -91.4233 99° East 376 433 20,400 1,980 Climbing Chicago Center
18:24 42.4711 -91.2803 100° East 388 447 21,900 1,200 Climbing Chicago Center
18:25 42.4528 -91.1269 99° East 412 474 23,000 480 Climbing Chicago Center
18:26 42.4322 -90.9614 99° East 449 517 23,000  Level Chicago Center
18:27 42.4106 -90.7867 99° East 471 542 23,000  Level Chicago Center
18:28 42.4136 -90.5736 89° East 494 568 23,000  Level Chicago Center
18:29 42.4331 -90.3889 82° East 501 577 23,000  Level Chicago Center
18:30 42.4303 -90.2078 91° East 487 560 23,000  Level Chicago Center
18:31 42.4253 -90.0275 92° East 484 557 23,000  Level Chicago Center
18:32 42.4192 -89.8253 92° East 483 556 23,000  Level Chicago Center
18:33 42.4133 -89.6453 92° East 481 554 23,000  Level Chicago Center
18:34 42.4083 -89.4644 92° East 482 555 23,000 -960 Level Chicago Center
18:35 42.4019 -89.2556 92° East 478 550 21,100 -2,100 Descending Chicago Center
18:36 42.3961 -89.0817 93° East 468 539 18,700 -2,700 Descending Chicago Center
18:37 42.3906 -88.9283 93° East 415 478 15,600 -2,940 Descending Chicago Center
18:38 42.3861 -88.7828 92° East 392 451 12,700 -2,520 Descending Chicago Center
18:39 42.3808 -88.6428 93° East 378 435 10,500 -1,560 Descending Chicago Center
18:40 42.3758 -88.5311 93° East 306 352 9,500 -780 Descending Chicago Center
18:41 42.3511 -88.4156 106° East 280 322 9,000 -300 Descending Chicago Center
18:42 42.3428 -88.3269 97° East 257 296 9,000  Level Chicago Center
18:43 42.3567 -88.2292 79° East 265 305 9,000  Level Chicago Center
18:44 42.3203 -88.1772 133° Southeast 210 242 9,000 -540 Level Chicago Center
18:45 42.2642 -88.1669 172° South 206 237 7,900 -1,260 Descending Chicago Center
18:46 42.2111 -88.1553 171° South 197 227 6,500 -1,020 Descending Chicago Center
18:47 42.1639 -88.1322 160° South 180 207 5,800 -1,020 Descending Chicago Center
18:48 42.1281 -88.0886 138° Southeast 174 200 4,500 -1,320 Descending Chicago Center